Time;durP1;ratioP1;P1;durP2;ratioP2;P2;SDS_P1;SDS_P2;PMS_P1;PMS_P2;Temp;Humidity;BMP_temperature;BMP_pressure;BME280_temperature;BME280_humidity;BME280_pressure;Samples;Min_cycle;Max_cycle;Signal;HPM_P1;HPM_P2
2022/01/24 00:01:53;;;;;;;13.13;8.90;;;6.90;99.90;;;;;;5053919;28;20189;-85
2022/01/24 00:04:21;;;;;;;13.57;9.55;;;6.90;99.90;;;;;;5052382;28;20171;-85
2022/01/24 00:06:46;;;;;;;15.90;10.32;;;6.90;99.90;;;;;;5053456;28;20177;-85
2022/01/24 00:09:12;;;;;;;16.35;10.13;;;6.80;99.90;;;;;;5054314;28;20163;-85
2022/01/24 00:17:09;;;;;;;18.75;11.43;;;6.90;99.90;;;;;;5054374;28;20204;-83
2022/01/24 00:27:48;;;;;;;17.52;11.13;;;6.90;99.90;;;;;;5066581;28;20256;-85
2022/01/24 00:30:15;;;;;;;17.02;11.02;;;7.00;99.90;;;;;;5064695;28;20166;-85
2022/01/24 00:32:41;;;;;;;20.92;11.07;;;6.90;99.90;;;;;;5065516;28;20195;-81
2022/01/24 00:35:07;;;;;;;17.67;11.13;;;6.80;99.90;;;;;;5056125;28;20581;-84
2022/01/24 00:37:34;;;;;;;20.30;11.43;;;6.80;99.90;;;;;;5057918;28;20734;-80
2022/01/24 00:40:00;;;;;;;20.27;10.77;;;7.00;99.90;;;;;;5056627;28;20175;-85
2022/01/24 00:42:43;;;;;;;15.05;11.30;;;7.00;99.90;;;;;;5057000;28;20213;-85
2022/01/24 00:45:27;;;;;;;20.48;12.05;;;6.90;99.90;;;;;;5056830;28;20216;-84
2022/01/24 00:55:41;;;;;;;19.30;11.05;;;7.00;99.90;;;;;;5057032;28;20309;-85
2022/01/24 00:58:07;;;;;;;20.23;12.20;;;7.20;99.90;;;;;;5056685;28;20632;-83
2022/01/24 01:00:32;;;;;;;15.73;10.80;;;7.30;99.90;;;;;;5056709;28;20198;-85
2022/01/24 01:02:58;;;;;;;15.52;10.90;;;7.30;99.90;;;;;;5055064;28;20174;-82
2022/01/24 01:05:41;;;;;;;14.57;10.02;;;7.00;99.90;;;;;;5056288;28;20175;-84
2022/01/24 01:18:48;;;;;;;16.55;10.75;;;7.60;99.90;;;;;;5055219;28;20232;-85
2022/01/24 01:21:15;;;;;;;16.33;10.55;;;7.50;99.90;;;;;;5055018;28;20603;-85
2022/01/24 01:23:47;;;;;;;15.60;10.25;;;7.60;99.90;;;;;;5054753;28;20167;-83
2022/01/24 01:28:49;;;;;;;12.70;9.48;;;7.50;99.90;;;;;;5056350;28;20178;-86
2022/01/24 01:53:30;;;;;;;15.57;10.45;;;7.40;99.90;;;;;;5055768;28;20182;-84
2022/01/24 01:55:53;;;;;;;14.93;9.57;;;7.60;99.90;;;;;;5055649;28;20214;-85
2022/01/24 01:58:21;;;;;;;14.52;9.52;;;7.60;99.90;;;;;;5055815;28;20163;-85
2022/01/24 02:00:55;;;;;;;15.00;9.20;;;7.50;99.90;;;;;;5054152;28;20190;-83
2022/01/24 02:03:22;;;;;;;13.90;9.32;;;7.50;99.90;;;;;;5054228;28;20171;-84
2022/01/24 02:05:47;;;;;;;14.15;9.10;;;7.50;99.90;;;;;;5054661;28;20171;-84
2022/01/24 02:08:13;;;;;;;18.75;10.23;;;7.10;99.90;;;;;;5055409;28;20163;-84
2022/01/24 02:10:41;;;;;;;17.02;11.02;;;7.20;99.90;;;;;;5055813;28;20568;-81
2022/01/24 02:13:07;;;;;;;12.00;10.18;;;7.20;99.90;;;;;;5053684;28;20167;-84
2022/01/24 02:18:07;;;;;;;18.10;10.18;;;7.60;99.90;;;;;;5055008;28;20170;-83
2022/01/24 02:25:48;;;;;;;15.25;10.55;;;7.40;99.90;;;;;;5055180;28;20187;-84
2022/01/24 02:28:16;;;;;;;10.63;9.15;;;7.30;99.90;;;;;;5054955;28;20164;-85
2022/01/24 02:33:14;;;;;;;14.25;10.38;;;7.10;99.90;;;;;;5055088;28;20179;-86
2022/01/24 02:35:40;;;;;;;15.02;10.48;;;7.30;99.90;;;;;;5055193;28;20746;-84
2022/01/24 02:38:16;;;;;;;14.95;9.88;;;7.00;99.90;;;;;;5054127;28;20525;-86
2022/01/24 02:40:42;;;;;;;13.98;10.20;;;6.70;99.90;;;;;;5053600;28;20255;-84
2022/01/24 02:48:47;;;;;;;16.10;10.10;;;7.10;99.90;;;;;;5052614;28;20182;-83
2022/01/24 02:53:58;;;;;;;15.25;10.88;;;7.00;99.90;;;;;;5054456;28;20274;-85
2022/01/24 02:56:23;;;;;;;14.18;10.50;;;7.10;99.90;;;;;;5054654;28;20277;-85
2022/01/24 02:58:49;;;;;;;17.80;11.40;;;7.00;99.90;;;;;;5054241;28;20167;-85
2022/01/24 03:01:14;;;;;;;14.20;10.45;;;7.10;99.90;;;;;;5054439;28;20179;-85
2022/01/24 03:03:40;;;;;;;12.80;9.60;;;7.40;99.90;;;;;;5053094;28;20172;-85
2022/01/24 03:06:06;;;;;;;15.23;10.63;;;7.40;99.90;;;;;;5054503;28;20168;-86
2022/01/24 03:08:32;;;;;;;16.52;10.50;;;7.00;99.90;;;;;;5053387;28;20168;-86
2022/01/24 03:10:59;;;;;;;14.55;9.95;;;7.10;99.90;;;;;;5054581;28;20191;-82
2022/01/24 03:15:56;;;;;;;14.85;11.40;;;7.40;99.90;;;;;;5054578;28;20214;-85
2022/01/24 03:18:22;;;;;;;16.35;11.15;;;7.50;99.90;;;;;;5053136;28;20171;-86
2022/01/24 03:20:49;;;;;;;17.08;11.55;;;7.50;99.90;;;;;;5054068;28;20187;-84
2022/01/24 03:23:17;;;;;;;16.85;10.77;;;7.40;99.90;;;;;;5053196;28;20160;-83
2022/01/24 03:25:43;;;;;;;17.83;10.02;;;7.40;99.90;;;;;;5054120;28;20175;-86
2022/01/24 03:28:10;;;;;;;15.73;10.15;;;7.30;99.90;;;;;;5053916;28;20193;-86
2022/01/24 03:30:36;;;;;;;17.05;10.77;;;7.30;99.90;;;;;;5052985;28;20182;-85
2022/01/24 03:33:03;;;;;;;14.27;10.60;;;7.10;99.90;;;;;;5053245;28;20253;-85
2022/01/24 03:35:29;;;;;;;16.45;10.15;;;7.00;99.90;;;;;;5052875;28;20264;-85
2022/01/24 03:37:55;;;;;;;15.13;10.43;;;6.90;99.90;;;;;;5054273;28;20160;-84
2022/01/24 03:40:20;;;;;;;18.40;11.85;;;6.80;99.90;;;;;;5052823;28;20169;-86
2022/01/24 03:42:46;;;;;;;19.08;11.18;;;6.80;99.90;;;;;;5052768;28;20701;-83
2022/01/24 03:45:12;;;;;;;15.40;9.77;;;6.80;99.90;;;;;;5054228;28;20685;-82
2022/01/24 03:50:16;;;;;;;17.38;11.00;;;6.90;99.90;;;;;;5053536;28;20175;-81
2022/01/24 03:52:45;;;;;;;14.85;10.18;;;7.10;99.90;;;;;;5052381;28;20196;-82
2022/01/24 03:55:11;;;;;;;17.65;11.20;;;6.90;99.90;;;;;;5053013;28;20253;-84
2022/01/24 03:57:37;;;;;;;15.25;10.82;;;6.90;99.90;;;;;;5053343;28;20212;-81
2022/01/24 04:00:05;;;;;;;14.63;10.40;;;6.90;99.90;;;;;;5054106;28;20171;-82
2022/01/24 04:02:31;;;;;;;15.68;10.82;;;6.80;99.90;;;;;;5052414;28;20198;-86
2022/01/24 04:04:56;;;;;;;17.45;11.27;;;6.80;99.90;;;;;;5052543;28;20171;-81
2022/01/24 04:07:22;;;;;;;16.65;11.27;;;6.80;99.90;;;;;;5052678;28;20167;-81
2022/01/24 04:09:49;;;;;;;18.75;10.70;;;6.80;99.90;;;;;;5052944;28;20171;-82
2022/01/24 04:12:15;;;;;;;20.58;10.80;;;6.90;99.90;;;;;;5052857;28;20278;-85
2022/01/24 04:14:55;;;;;;;15.55;11.07;;;7.00;99.90;;;;;;5052534;28;20199;-81
2022/01/24 04:17:24;;;;;;;18.08;11.15;;;6.70;99.90;;;;;;5052678;28;20202;-85
2022/01/24 04:22:32;;;;;;;16.35;11.30;;;6.60;99.90;;;;;;5053279;28;20569;-84
2022/01/24 04:25:03;;;;;;;21.98;12.02;;;6.90;99.90;;;;;;5052671;28;20179;-81
2022/01/24 04:27:30;;;;;;;16.85;10.70;;;7.00;99.90;;;;;;5052267;28;20502;-84
2022/01/24 04:29:55;;;;;;;17.55;11.50;;;7.00;99.90;;;;;;5053389;28;20558;-83
2022/01/24 04:32:21;;;;;;;16.20;11.48;;;7.20;99.90;;;;;;5053716;28;20183;-86
2022/01/24 04:34:48;;;;;;;16.85;11.48;;;7.40;99.90;;;;;;5052679;28;20671;-82
2022/01/24 04:37:13;;;;;;;22.75;11.45;;;7.30;99.90;;;;;;5053466;28;20163;-81
2022/01/24 04:39:39;;;;;;;16.92;11.18;;;7.40;99.90;;;;;;5053357;28;20163;-86
2022/01/24 04:42:13;;;;;;;16.60;11.77;;;7.50;99.90;;;;;;5051914;28;20187;-81
2022/01/24 04:52:44;;;;;;;18.98;11.65;;;8.00;99.90;;;;;;5063410;28;20864;-85
2022/01/24 04:55:09;;;;;;;13.98;10.85;;;7.60;99.90;;;;;;5067517;28;20206;-86
2022/01/24 04:57:35;;;;;;;21.95;12.55;;;7.20;99.90;;;;;;5065956;28;20240;-81
2022/01/24 05:00:05;;;;;;;17.05;10.77;;;7.30;99.90;;;;;;5061071;28;20167;-80
2022/01/24 05:02:30;;;;;;;17.67;11.13;;;7.50;99.90;;;;;;5052911;28;20187;-85
2022/01/24 05:04:56;;;;;;;18.08;11.27;;;7.50;99.90;;;;;;5053526;28;20195;-85
2022/01/24 05:07:22;;;;;;;20.73;11.48;;;7.40;99.90;;;;;;5053374;28;20615;-82
2022/01/24 05:12:27;;;;;;;16.65;11.18;;;7.30;99.90;;;;;;5055739;28;20186;-82
2022/01/24 05:25:53;;;;;;;20.48;11.57;;;7.50;99.90;;;;;;5056192;28;20237;-83
2022/01/24 05:28:20;;;;;;;23.17;11.35;;;7.40;99.90;;;;;;5056112;28;20174;-85
2022/01/24 05:30:46;;;;;;;15.60;10.75;;;7.30;99.90;;;;;;5056171;28;20222;-82
2022/01/24 05:33:11;;;;;;;19.95;11.85;;;7.00;99.90;;;;;;5055672;28;20639;-85
2022/01/24 05:35:37;;;;;;;17.02;11.25;;;7.00;99.90;;;;;;5054843;28;20211;-81
2022/01/24 05:38:04;;;;;;;22.20;12.65;;;7.10;99.90;;;;;;5055877;28;20159;-81
2022/01/24 05:40:30;;;;;;;17.15;10.90;;;7.30;99.90;;;;;;5054778;28;20538;-83
2022/01/24 05:42:56;;;;;;;20.25;12.80;;;7.50;99.90;;;;;;5054059;28;20173;-84
2022/01/24 05:45:21;;;;;;;20.58;13.77;;;7.50;99.90;;;;;;5054273;28;20175;-86
2022/01/24 05:47:47;;;;;;;23.35;14.20;;;7.50;99.90;;;;;;5055933;28;20195;-83
2022/01/24 05:50:13;;;;;;;20.63;12.77;;;7.40;99.90;;;;;;5054828;28;20175;-84
2022/01/24 05:52:38;;;;;;;22.25;12.23;;;7.30;99.90;;;;;;5055415;28;20179;-81
2022/01/24 05:55:05;;;;;;;29.17;13.15;;;7.50;99.90;;;;;;5054113;28;20655;-84
2022/01/24 05:57:31;;;;;;;21.63;13.02;;;7.40;99.90;;;;;;5054009;28;20199;-82
2022/01/24 05:59:57;;;;;;;21.40;12.52;;;7.50;99.90;;;;;;5055393;28;20552;-85
2022/01/24 06:02:23;;;;;;;16.50;11.55;;;7.40;99.90;;;;;;5053927;28;20183;-84
2022/01/24 06:04:49;;;;;;;24.25;12.43;;;7.40;99.90;;;;;;5054284;28;20498;-84
2022/01/24 06:07:15;;;;;;;23.40;12.95;;;7.30;99.90;;;;;;5053840;28;20173;-85
2022/01/24 06:09:40;;;;;;;25.65;14.60;;;7.30;99.90;;;;;;5053948;28;20167;-83
2022/01/24 06:12:06;;;;;;;29.10;13.75;;;7.30;99.90;;;;;;5053209;28;20190;-84
2022/01/24 06:14:32;;;;;;;20.65;11.95;;;7.10;99.90;;;;;;5053902;28;20195;-84
2022/01/24 06:16:58;;;;;;;22.67;13.30;;;6.80;99.90;;;;;;5054674;28;20182;-82
2022/01/24 06:19:23;;;;;;;22.63;13.75;;;6.90;99.90;;;;;;5052602;28;20220;-85
2022/01/24 06:21:49;;;;;;;20.02;12.45;;;7.10;99.90;;;;;;5053274;28;20207;-85
2022/01/24 06:24:15;;;;;;;24.77;12.63;;;7.20;99.90;;;;;;5053281;28;20171;-84
2022/01/24 06:26:41;;;;;;;19.13;12.93;;;7.30;99.90;;;;;;5054650;28;20163;-82
2022/01/24 06:29:07;;;;;;;19.10;13.05;;;7.00;99.90;;;;;;5054306;28;20265;-85
2022/01/24 06:31:32;;;;;;;27.70;14.10;;;6.80;99.90;;;;;;5053308;28;20657;-86
2022/01/24 06:33:58;;;;;;;23.80;14.20;;;6.60;99.90;;;;;;5053933;28;20226;-84
2022/01/24 06:36:24;;;;;;;24.30;12.38;;;6.50;99.90;;;;;;5054125;28;20265;-82
2022/01/24 06:38:50;;;;;;;30.88;13.95;;;6.70;99.90;;;;;;5055017;28;20190;-83
2022/01/24 06:41:25;;;;;;;21.08;13.10;;;6.70;99.90;;;;;;5054016;28;20191;-84
2022/01/24 06:43:51;;;;;;;25.75;14.27;;;6.70;99.90;;;;;;5053045;28;20166;-85
2022/01/24 06:46:16;;;;;;;32.58;12.98;;;6.60;99.90;;;;;;5052689;28;20630;-84
2022/01/24 06:48:42;;;;;;;40.17;14.23;;;6.50;99.90;;;;;;5052787;28;20228;-81
2022/01/24 06:51:10;;;;;;;24.08;13.73;;;6.40;99.90;;;;;;5053781;28;20194;-81
2022/01/24 06:53:37;;;;;;;26.50;14.48;;;6.40;99.90;;;;;;5052339;28;20173;-82
2022/01/24 06:56:05;;;;;;;22.25;13.57;;;6.50;99.90;;;;;;5052472;28;20211;-81
2022/01/24 06:58:31;;;;;;;26.42;12.80;;;6.60;99.90;;;;;;5053966;28;20164;-80
2022/01/24 07:00:57;;;;;;;25.15;13.38;;;6.60;99.90;;;;;;5053982;28;20243;-85
2022/01/24 07:03:22;;;;;;;20.55;12.30;;;6.60;99.90;;;;;;5053543;28;20242;-81
2022/01/24 07:05:48;;;;;;;30.80;14.77;;;6.80;99.90;;;;;;5051906;28;20171;-83
2022/01/24 07:08:13;;;;;;;22.65;13.45;;;6.80;99.90;;;;;;5053301;28;20178;-82
2022/01/24 07:10:39;;;;;;;48.00;16.60;;;6.70;99.90;;;;;;5052841;28;20213;-82
2022/01/24 07:13:05;;;;;;;36.38;14.52;;;6.60;99.90;;;;;;5051445;28;20160;-82
2022/01/24 07:15:34;;;;;;;27.35;13.60;;;6.60;99.90;;;;;;5052707;28;20206;-79
2022/01/24 07:18:57;;;;;;;49.80;15.48;;;6.70;99.90;;;;;;5051495;28;20163;-83
2022/01/24 07:21:04;;;;;;;26.27;12.98;;;6.60;99.90;;;;;;5052807;28;20210;-82
2022/01/24 07:23:30;;;;;;;23.65;14.13;;;6.60;99.90;;;;;;5065478;28;20152;-80
2022/01/24 07:25:56;;;;;;;30.27;14.13;;;6.50;99.90;;;;;;5077690;28;20167;-81
2022/01/24 07:28:21;;;;;;;32.53;14.45;;;6.60;99.90;;;;;;5076796;28;20202;-81
2022/01/24 07:30:47;;;;;;;18.75;12.48;;;6.70;99.90;;;;;;5077131;28;20206;-80
2022/01/24 07:33:14;;;;;;;30.00;14.38;;;6.60;99.90;;;;;;5076365;28;20242;-80
2022/01/24 07:35:41;;;;;;;32.72;13.48;;;6.60;99.90;;;;;;5061109;28;20215;-85
2022/01/24 07:38:07;;;;;;;30.80;15.30;;;6.60;99.90;;;;;;5053889;28;20153;-84
2022/01/24 07:40:38;;;;;;;40.92;16.02;;;6.60;99.90;;;;;;5051387;28;20608;-82
2022/01/24 07:45:37;;;;;;;64.85;17.65;;;6.60;99.90;;;;;;5052662;28;20222;-85
2022/01/24 07:48:03;;;;;;;131.73;24.98;;;6.60;99.90;;;;;;5052532;28;20178;-82
2022/01/24 07:50:30;;;;;;;36.20;14.82;;;6.60;99.90;;;;;;5052200;28;20167;-81
2022/01/24 07:52:56;;;;;;;74.68;16.67;;;6.60;99.90;;;;;;5051413;28;20217;-85
2022/01/24 07:55:22;;;;;;;107.85;21.75;;;6.60;99.90;;;;;;5052902;28;20509;-84
2022/01/24 07:57:48;;;;;;;41.47;14.27;;;6.50;99.90;;;;;;5052667;28;20208;-81
2022/01/24 08:00:14;;;;;;;40.40;14.88;;;6.30;99.90;;;;;;5053407;28;20167;-78
2022/01/24 08:02:40;;;;;;;75.97;16.35;;;6.10;99.90;;;;;;5053091;28;20191;-82
2022/01/24 08:05:08;;;;;;;72.50;17.33;;;6.20;99.90;;;;;;5051460;28;20257;-80
2022/01/24 08:07:35;;;;;;;203.38;25.25;;;6.30;99.90;;;;;;5052487;28;20175;-81
2022/01/24 08:10:00;;;;;;;45.22;15.00;;;6.30;99.90;;;;;;5052877;28;20221;-84
2022/01/24 08:12:26;;;;;;;23.38;13.00;;;6.30;99.90;;;;;;5052120;28;20198;-84
2022/01/24 08:14:52;;;;;;;34.83;13.73;;;6.30;99.90;;;;;;5052329;28;20207;-80
2022/01/24 08:17:18;;;;;;;45.15;14.85;;;6.30;99.90;;;;;;5052455;28;20255;-84
2022/01/24 08:19:44;;;;;;;22.20;13.02;;;6.20;99.90;;;;;;5051949;28;20171;-85
2022/01/24 08:22:12;;;;;;;21.08;10.95;;;6.20;99.90;;;;;;5052667;28;20210;-80
2022/01/24 08:24:37;;;;;;;22.48;12.38;;;6.40;99.90;;;;;;5051485;28;20170;-83
2022/01/24 08:27:03;;;;;;;28.83;14.07;;;6.20;99.90;;;;;;5051635;28;20175;-83
2022/01/24 08:29:29;;;;;;;36.20;14.00;;;6.30;99.90;;;;;;5052441;28;20654;-79
2022/01/24 08:31:55;;;;;;;43.65;17.67;;;6.20;99.90;;;;;;5053197;28;20245;-85
2022/01/24 08:34:20;;;;;;;34.63;15.43;;;6.10;99.90;;;;;;5053470;28;20166;-83
2022/01/24 08:36:47;;;;;;;35.47;15.60;;;6.10;99.90;;;;;;5053348;28;20317;-87
2022/01/24 08:39:13;;;;;;;36.72;13.02;;;6.20;99.90;;;;;;5053315;28;20198;-85
2022/01/24 08:42:11;;;;;;;44.72;18.65;;;6.30;99.90;;;;;;5053948;28;20243;-80
2022/01/24 08:47:10;;;;;;;31.10;12.90;;;6.20;99.90;;;;;;5057601;28;20268;-80
2022/01/24 08:49:35;;;;;;;23.95;13.20;;;6.40;99.90;;;;;;5055962;28;20616;-77
2022/01/24 08:52:01;;;;;;;33.53;13.82;;;6.60;99.90;;;;;;5055619;28;20194;-81
2022/01/24 08:54:27;;;;;;;19.27;12.23;;;6.50;99.90;;;;;;5055469;28;20170;-83
2022/01/24 08:56:53;;;;;;;52.63;18.33;;;6.50;99.90;;;;;;5056009;28;20183;-82
2022/01/24 08:59:21;;;;;;;22.25;13.50;;;6.50;99.90;;;;;;5056041;28;20163;-85
2022/01/24 09:01:47;;;;;;;19.50;12.45;;;6.30;99.90;;;;;;5056235;28;20193;-85
2022/01/24 09:04:13;;;;;;;32.78;13.95;;;6.10;99.90;;;;;;5056629;28;20623;-82
2022/01/24 09:06:39;;;;;;;27.70;12.88;;;6.10;99.90;;;;;;5056490;28;20728;-82
2022/01/24 09:09:05;;;;;;;71.97;18.92;;;6.20;99.90;;;;;;5055747;28;20182;-82
2022/01/24 09:11:36;;;;;;;51.65;20.75;;;6.10;99.90;;;;;;5055806;28;20229;-78
2022/01/24 09:14:04;;;;;;;41.92;15.55;;;6.10;99.90;;;;;;5057974;28;20178;-82
2022/01/24 09:16:29;;;;;;;52.00;15.63;;;6.10;99.90;;;;;;5061065;28;20233;-81
2022/01/24 09:18:55;;;;;;;46.00;16.25;;;5.90;99.90;;;;;;5057374;28;20187;-77
2022/01/24 09:21:22;;;;;;;49.28;15.40;;;5.90;99.90;;;;;;5057440;28;20207;-80
2022/01/24 09:23:48;;;;;;;77.93;21.92;;;6.00;99.90;;;;;;5058644;28;20270;-82
2022/01/24 09:26:14;;;;;;;80.03;18.75;;;6.20;99.90;;;;;;5058613;28;20217;-83
2022/01/24 09:28:39;;;;;;;29.50;14.95;;;6.20;99.90;;;;;;5055661;28;20178;-84
2022/01/24 09:31:05;;;;;;;48.13;15.73;;;6.20;99.90;;;;;;5050980;28;20245;-79
2022/01/24 09:33:32;;;;;;;41.08;13.75;;;6.40;99.90;;;;;;5055076;28;20270;-81
2022/01/24 09:36:02;;;;;;;23.70;13.05;;;6.40;99.90;;;;;;5054668;28;20289;-79
2022/01/24 09:38:30;;;;;;;28.08;14.77;;;6.10;99.90;;;;;;5053503;28;20261;-80
2022/01/24 09:40:56;;;;;;;34.63;15.15;;;6.20;99.90;;;;;;5055224;28;20187;-80
2022/01/24 09:43:22;;;;;;;27.27;15.38;;;6.60;99.90;;;;;;5055134;28;20191;-86
2022/01/24 09:45:48;;;;;;;33.05;14.52;;;6.70;99.90;;;;;;5055643;28;20214;-84
2022/01/24 09:48:16;;;;;;;54.22;17.02;;;6.50;99.90;;;;;;5054746;28;20217;-82
2022/01/24 09:50:42;;;;;;;103.20;17.38;;;6.50;99.90;;;;;;5055667;28;20179;-85
2022/01/24 09:53:08;;;;;;;23.77;13.32;;;6.50;99.90;;;;;;5053925;28;20171;-79
2022/01/24 09:55:34;;;;;;;118.82;24.45;;;6.60;99.90;;;;;;5054845;28;20207;-79
2022/01/24 09:58:00;;;;;;;49.42;17.48;;;6.50;99.90;;;;;;5051691;28;20163;-85
2022/01/24 10:00:29;;;;;;;66.90;24.00;;;6.50;99.90;;;;;;5054955;28;20175;-79
2022/01/24 10:02:56;;;;;;;48.83;19.42;;;6.60;99.90;;;;;;5054252;28;20201;-82
2022/01/24 10:05:33;;;;;;;34.65;16.52;;;6.60;99.90;;;;;;5055157;28;20167;-84
2022/01/24 10:08:02;;;;;;;39.42;16.00;;;6.70;99.90;;;;;;5055517;28;20159;-79
2022/01/24 10:10:45;;;;;;;75.90;19.45;;;6.70;99.90;;;;;;5053847;28;20202;-84
2022/01/24 10:16:25;;;;;;;36.88;18.75;;;6.90;99.90;;;;;;5052027;28;20249;-80
2022/01/24 10:19:16;;;;;;;31.98;13.52;;;6.90;99.90;;;;;;5053626;28;20548;-79
2022/01/24 10:21:50;;;;;;;28.92;15.73;;;6.90;99.90;;;;;;5053793;28;20214;-81
2022/01/24 10:24:37;;;;;;;41.95;19.80;;;6.80;99.90;;;;;;5053440;28;20564;-79
2022/01/24 10:27:15;;;;;;;25.88;15.05;;;6.90;99.90;;;;;;5054100;28;20643;-80
2022/01/24 10:29:58;;;;;;;31.17;15.05;;;6.80;99.90;;;;;;5052320;28;20765;-79
2022/01/24 10:32:33;;;;;;;28.40;14.80;;;6.80;99.90;;;;;;5033169;28;20229;-80
2022/01/24 10:35:26;;;;;;;36.58;15.63;;;6.90;99.90;;;;;;5052251;28;20288;-86
2022/01/24 10:41:09;;;;;;;40.90;13.98;;;7.00;99.90;;;;;;5052275;28;20252;-82
2022/01/24 10:43:37;;;;;;;26.08;14.48;;;7.10;99.90;;;;;;5052316;28;20171;-84
2022/01/24 10:46:03;;;;;;;33.80;14.27;;;6.70;99.90;;;;;;5054153;28;20202;-78
2022/01/24 10:48:32;;;;;;;53.20;18.38;;;6.60;99.90;;;;;;5054031;28;20203;-77
2022/01/24 10:51:12;;;;;;;34.33;17.27;;;6.80;99.90;;;;;;5054453;28;20278;-77
2022/01/24 10:53:43;;;;;;;24.42;15.60;;;6.80;99.90;;;;;;5053860;28;20183;-83
2022/01/24 10:56:29;;;;;;;35.55;18.33;;;7.00;99.90;;;;;;5054734;28;20202;-87
2022/01/24 10:59:15;;;;;;;44.83;15.63;;;6.80;99.90;;;;;;5055370;28;20191;-84
2022/01/24 11:01:44;;;;;;;29.38;13.32;;;6.70;99.90;;;;;;5056486;28;20191;-87
2022/01/24 11:04:13;;;;;;;29.90;14.68;;;6.70;99.90;;;;;;5053454;28;20637;-87
2022/01/24 11:06:51;;;;;;;24.13;13.70;;;6.60;99.90;;;;;;5055125;28;20187;-82
2022/01/24 11:09:26;;;;;;;21.20;13.23;;;6.70;99.90;;;;;;5055598;28;20155;-86
2022/01/24 11:12:06;;;;;;;25.80;14.07;;;6.80;99.90;;;;;;5059166;28;20674;-88
2022/01/24 11:14:32;;;;;;;29.35;15.23;;;6.80;99.90;;;;;;5057790;28;20245;-86
2022/01/24 11:16:59;;;;;;;23.25;13.05;;;6.90;99.90;;;;;;5057607;28;20195;-87
2022/01/24 11:21:58;;;;;;;22.35;13.35;;;6.90;99.90;;;;;;5057062;28;20230;-87
2022/01/24 11:24:51;;;;;;;24.38;13.88;;;6.90;99.90;;;;;;5056296;28;20159;-84
2022/01/24 11:27:17;;;;;;;21.63;14.23;;;6.90;99.90;;;;;;5058067;28;20163;-88
2022/01/24 11:29:44;;;;;;;22.13;14.27;;;7.20;99.90;;;;;;5065673;28;20175;-82
2022/01/24 11:32:12;;;;;;;26.08;13.88;;;7.10;99.90;;;;;;5070559;28;20191;-81
2022/01/24 11:34:40;;;;;;;30.13;14.70;;;7.00;99.90;;;;;;5059798;28;20179;-80
2022/01/24 11:37:08;;;;;;;26.90;13.57;;;7.00;99.90;;;;;;5055908;28;20167;-81
2022/01/24 11:39:36;;;;;;;39.03;14.68;;;7.10;99.90;;;;;;5057290;28;20182;-84
2022/01/24 11:42:02;;;;;;;52.00;17.10;;;7.20;99.90;;;;;;5054662;28;20544;-84
2022/01/24 11:44:49;;;;;;;44.22;21.58;;;7.20;99.90;;;;;;5054143;28;20166;-84
2022/01/24 11:47:26;;;;;;;22.63;12.95;;;7.20;99.90;;;;;;5053883;28;20507;-80
2022/01/24 11:49:53;;;;;;;20.20;13.00;;;7.20;99.90;;;;;;5053421;28;20167;-80
2022/01/24 11:52:29;;;;;;;22.17;12.77;;;7.20;99.90;;;;;;5053569;28;20665;-87
2022/01/24 11:57:40;;;;;;;40.05;13.98;;;7.30;99.90;;;;;;5053322;28;20179;-82
2022/01/24 12:00:06;;;;;;;28.55;12.70;;;7.30;99.90;;;;;;5052695;28;20219;-79
2022/01/24 12:02:52;;;;;;;44.65;15.90;;;7.20;99.90;;;;;;5053482;28;20198;-87
2022/01/24 12:05:20;;;;;;;19.90;12.88;;;7.10;99.90;;;;;;5053971;28;20167;-81
2022/01/24 12:07:58;;;;;;;33.70;14.85;;;7.20;99.90;;;;;;5054517;28;20229;-86
2022/01/24 12:10:33;;;;;;;41.85;17.13;;;7.20;99.90;;;;;;5053765;28;20155;-84
2022/01/24 12:13:03;;;;;;;20.40;12.55;;;7.20;99.90;;;;;;5052784;28;20162;-83
2022/01/24 12:15:41;;;;;;;23.73;13.02;;;7.30;99.90;;;;;;5067209;28;20698;-79
2022/01/24 12:18:09;;;;;;;21.02;12.07;;;7.30;99.90;;;;;;5055036;28;20178;-84
2022/01/24 12:20:35;;;;;;;22.45;13.48;;;7.50;99.90;;;;;;5055292;28;20174;-84
2022/01/24 12:23:25;;;;;;;22.27;12.75;;;7.60;99.90;;;;;;5055544;28;20213;-84
2022/01/24 12:26:02;;;;;;;29.45;13.48;;;7.80;99.90;;;;;;5056022;28;20501;-81
2022/01/24 12:28:34;;;;;;;27.95;13.20;;;7.90;99.90;;;;;;5056011;28;20198;-83
2022/01/24 12:31:06;;;;;;;19.17;11.98;;;7.70;99.90;;;;;;5057363;28;20228;-88
2022/01/24 12:33:41;;;;;;;27.30;13.07;;;7.60;99.90;;;;;;5056414;28;20844;-82
2022/01/24 12:36:11;;;;;;;25.73;13.02;;;7.60;99.90;;;;;;5057395;28;20213;-89
2022/01/24 12:38:41;;;;;;;23.75;13.48;;;7.80;99.90;;;;;;5053369;28;20170;-87
2022/01/24 12:41:37;;;;;;;21.55;12.93;;;7.90;99.90;;;;;;5043834;28;20713;-86
2022/01/24 12:46:31;;;;;;;19.42;11.82;;;7.90;99.90;;;;;;5062394;28;20167;-78
2022/01/24 12:49:01;;;;;;;22.77;13.27;;;7.70;99.90;;;;;;5051653;28;20163;-82
2022/01/24 12:51:37;;;;;;;19.85;12.20;;;7.70;99.90;;;;;;5051447;28;20218;-78
2022/01/24 12:54:06;;;;;;;20.63;12.15;;;7.80;99.90;;;;;;5066709;28;20167;-83
2022/01/24 12:56:34;;;;;;;19.17;12.52;;;8.00;99.90;;;;;;5065887;28;20195;-81
2022/01/24 12:59:01;;;;;;;25.35;13.57;;;7.90;99.90;;;;;;5061801;28;20159;-85
2022/01/24 13:01:31;;;;;;;36.83;15.43;;;8.10;99.90;;;;;;5062084;28;20206;-84
2022/01/24 13:04:05;;;;;;;24.33;13.32;;;7.90;99.90;;;;;;5067759;28;20167;-85
2022/01/24 13:06:36;;;;;;;38.05;13.95;;;7.70;99.90;;;;;;5068388;28;20261;-81
2022/01/24 13:09:10;;;;;;;47.45;22.35;;;7.80;99.90;;;;;;5065757;28;20160;-79
2022/01/24 13:12:00;;;;;;;28.85;14.40;;;8.00;99.90;;;;;;5067105;28;20186;-84
2022/01/24 13:14:42;;;;;;;61.15;17.85;;;8.20;99.90;;;;;;5052570;28;20167;-85
2022/01/24 13:25:27;;;;;;;77.07;30.38;;;8.20;99.90;;;;;;5056674;28;20245;-89
2022/01/24 13:27:57;;;;;;;31.60;15.93;;;8.20;99.90;;;;;;5074777;28;20171;-88
2022/01/24 13:30:29;;;;;;;22.63;13.40;;;8.10;99.90;;;;;;5050679;28;20155;-85
2022/01/24 13:33:03;;;;;;;68.13;18.23;;;8.10;99.90;;;;;;5072559;28;20191;-82
2022/01/24 13:35:33;;;;;;;25.10;13.15;;;7.80;99.90;;;;;;5063382;28;20206;-83
2022/01/24 13:38:15;;;;;;;52.20;17.05;;;7.70;99.90;;;;;;5064373;28;20182;-79
2022/01/24 13:40:42;;;;;;;44.22;18.17;;;7.80;99.90;;;;;;5066616;28;20178;-88
2022/01/24 13:43:10;;;;;;;32.67;16.38;;;7.70;99.90;;;;;;5064170;28;20165;-82
2022/01/24 13:45:46;;;;;;;43.22;16.25;;;7.70;99.90;;;;;;5067114;28;20224;-87
2022/01/24 13:48:20;;;;;;;98.88;18.70;;;7.60;99.90;;;;;;5068938;28;20166;-86
2022/01/24 13:51:13;;;;;;;31.02;14.27;;;7.50;99.90;;;;;;5068620;28;20222;-81
2022/01/24 13:53:58;;;;;;;39.60;15.48;;;7.70;99.90;;;;;;5069085;28;20174;-78
2022/01/24 13:56:40;;;;;;;25.40;13.48;;;7.60;99.90;;;;;;5066148;28;20207;-78
2022/01/24 13:59:10;;;;;;;23.25;12.75;;;7.70;99.90;;;;;;5064334;28;20229;-79
2022/01/24 14:01:48;;;;;;;31.17;14.95;;;7.80;99.90;;;;;;5064539;28;20213;-88
2022/01/24 14:04:23;;;;;;;64.32;33.88;;;8.00;99.90;;;;;;5067482;28;20213;-78
2022/01/24 14:06:59;;;;;;;53.88;19.15;;;8.00;99.90;;;;;;5071397;28;20182;-81
2022/01/24 14:09:45;;;;;;;49.95;16.90;;;8.00;99.90;;;;;;5066910;28;20584;-86
2022/01/24 14:12:25;;;;;;;58.53;18.27;;;7.90;99.90;;;;;;5062817;28;20186;-85
2022/01/24 14:15:05;;;;;;;54.80;16.95;;;7.90;99.90;;;;;;5058643;28;20187;-77
2022/01/24 14:17:42;;;;;;;27.45;14.05;;;7.90;99.90;;;;;;5058456;28;20171;-79
2022/01/24 14:20:15;;;;;;;45.35;14.88;;;7.80;99.90;;;;;;5055905;28;20167;-79
2022/01/24 14:22:41;;;;;;;20.35;11.88;;;7.80;99.90;;;;;;5054589;28;20222;-84
2022/01/24 14:25:22;;;;;;;17.90;12.25;;;7.90;99.90;;;;;;5054436;28;20186;-81
2022/01/24 14:27:50;;;;;;;22.08;12.27;;;7.90;99.90;;;;;;5052982;28;20166;-78
2022/01/24 14:30:42;;;;;;;20.95;12.02;;;7.90;99.90;;;;;;5055659;28;20170;-82
2022/01/24 14:33:22;;;;;;;22.15;12.38;;;7.90;99.90;;;;;;5054670;28;20163;-88
2022/01/24 14:35:58;;;;;;;23.55;12.85;;;7.90;99.90;;;;;;5054701;28;20225;-88
2022/01/24 14:38:47;;;;;;;26.90;12.48;;;8.00;99.90;;;;;;5054878;28;20655;-86
2022/01/24 14:41:18;;;;;;;23.95;12.50;;;8.10;99.90;;;;;;5054310;28;20219;-80
2022/01/24 14:46:39;;;;;;;19.70;11.05;;;7.80;99.90;;;;;;5055146;28;20182;-86
2022/01/24 14:49:06;;;;;;;23.15;11.75;;;7.70;99.90;;;;;;5054672;28;20171;-85
2022/01/24 14:51:35;;;;;;;20.92;12.30;;;7.60;99.90;;;;;;5054431;28;20193;-77
2022/01/24 14:54:08;;;;;;;22.27;11.88;;;7.70;99.90;;;;;;5054303;28;20182;-78
2022/01/24 14:56:36;;;;;;;23.05;11.63;;;7.80;99.90;;;;;;5054792;28;20221;-80
2022/01/24 14:59:02;;;;;;;22.90;12.15;;;7.90;99.90;;;;;;5054235;28;20167;-77
2022/01/24 15:01:28;;;;;;;24.90;11.88;;;7.90;99.90;;;;;;5054617;28;20526;-85
2022/01/24 15:03:55;;;;;;;34.65;12.95;;;7.80;99.90;;;;;;5053738;28;20166;-84
2022/01/24 15:06:21;;;;;;;25.20;11.70;;;7.70;99.90;;;;;;5054102;28;20255;-79